sensor_id;sensor_type;location;lat;lon;timestamp;P1;P2;P0
57884;PMS5003;43703;51.060;-0.086;2023-04-24T00:01:06;39;36;
57884;PMS5003;43703;51.060;-0.086;2023-04-24T00:03:32;40;38;
57884;PMS5003;43703;51.060;-0.086;2023-04-24T00:05:57;47;43;
57884;PMS5003;43703;51.060;-0.086;2023-04-24T00:08:23;40;37;
57884;PMS5003;43703;51.060;-0.086;2023-04-24T00:10:49;41;37;
57884;PMS5003;43703;51.060;-0.086;2023-04-24T00:13:14;42;42;
57884;PMS5003;43703;51.060;-0.086;2023-04-24T00:15:40;44;42;
57884;PMS5003;43703;51.060;-0.086;2023-04-24T00:18:05;41;41;
57884;PMS5003;43703;51.060;-0.086;2023-04-24T00:20:31;42;40;
57884;PMS5003;43703;51.060;-0.086;2023-04-24T00:22:56;46;44;
57884;PMS5003;43703;51.060;-0.086;2023-04-24T00:25:22;38;38;
57884;PMS5003;43703;51.060;-0.086;2023-04-24T00:27:47;48;45;
57884;PMS5003;43703;51.060;-0.086;2023-04-24T00:30:12;40;40;
57884;PMS5003;43703;51.060;-0.086;2023-04-24T00:32:38;45;43;
57884;PMS5003;43703;51.060;-0.086;2023-04-24T00:35:03;47;43;
57884;PMS5003;43703;51.060;-0.086;2023-04-24T00:37:28;37;37;
57884;PMS5003;43703;51.060;-0.086;2023-04-24T00:39:54;35;32;
57884;PMS5003;43703;51.060;-0.086;2023-04-24T00:42:19;37;35;
57884;PMS5003;43703;51.060;-0.086;2023-04-24T00:44:45;39;37;
57884;PMS5003;43703;51.060;-0.086;2023-04-24T00:47:10;41;40;
57884;PMS5003;43703;51.060;-0.086;2023-04-24T00:49:36;38;37;
57884;PMS5003;43703;51.060;-0.086;2023-04-24T00:52:01;38;37;
57884;PMS5003;43703;51.060;-0.086;2023-04-24T00:54:27;39;37;
57884;PMS5003;43703;51.060;-0.086;2023-04-24T00:56:52;41;40;
57884;PMS5003;43703;51.060;-0.086;2023-04-24T00:59:18;31;30;
57884;PMS5003;43703;51.060;-0.086;2023-04-24T01:01:44;40;38;
57884;PMS5003;43703;51.060;-0.086;2023-04-24T01:04:09;38;36;
57884;PMS5003;43703;51.060;-0.086;2023-04-24T01:06:34;37;35;
57884;PMS5003;43703;51.060;-0.086;2023-04-24T01:08:59;36;35;
57884;PMS5003;43703;51.060;-0.086;2023-04-24T01:11:25;37;35;
57884;PMS5003;43703;51.060;-0.086;2023-04-24T01:13:50;38;38;
57884;PMS5003;43703;51.060;-0.086;2023-04-24T01:16:16;40;35;
57884;PMS5003;43703;51.060;-0.086;2023-04-24T01:18:41;38;38;
57884;PMS5003;43703;51.060;-0.086;2023-04-24T01:21:07;38;38;
57884;PMS5003;43703;51.060;-0.086;2023-04-24T01:23:32;36;35;
57884;PMS5003;43703;51.060;-0.086;2023-04-24T01:25:58;38;37;
57884;PMS5003;43703;51.060;-0.086;2023-04-24T01:28:24;41;38;
57884;PMS5003;43703;51.060;-0.086;2023-04-24T01:30:49;33;33;
57884;PMS5003;43703;51.060;-0.086;2023-04-24T01:33:14;44;39;
57884;PMS5003;43703;51.060;-0.086;2023-04-24T01:35:39;45;40;
57884;PMS5003;43703;51.060;-0.086;2023-04-24T01:38:05;37;34;
57884;PMS5003;43703;51.060;-0.086;2023-04-24T01:40:31;39;36;
57884;PMS5003;43703;51.060;-0.086;2023-04-24T01:42:56;40;40;
57884;PMS5003;43703;51.060;-0.086;2023-04-24T01:45:21;36;35;
57884;PMS5003;43703;51.060;-0.086;2023-04-24T01:47:47;36;31;
57884;PMS5003;43703;51.060;-0.086;2023-04-24T01:50:12;40;36;
57884;PMS5003;43703;51.060;-0.086;2023-04-24T01:52:38;32;30;
57884;PMS5003;43703;51.060;-0.086;2023-04-24T01:55:03;40;38;
57884;PMS5003;43703;51.060;-0.086;2023-04-24T01:57:28;37;34;
57884;PMS5003;43703;51.060;-0.086;2023-04-24T01:59:54;35;30;
57884;PMS5003;43703;51.060;-0.086;2023-04-24T02:02:20;36;35;
57884;PMS5003;43703;51.060;-0.086;2023-04-24T02:04:45;36;35;
57884;PMS5003;43703;51.060;-0.086;2023-04-24T02:07:10;37;33;
57884;PMS5003;43703;51.060;-0.086;2023-04-24T02:09:36;36;35;
57884;PMS5003;43703;51.060;-0.086;2023-04-24T02:12:01;36;34;
57884;PMS5003;43703;51.060;-0.086;2023-04-24T02:14:26;36;33;
57884;PMS5003;43703;51.060;-0.086;2023-04-24T02:16:51;37;32;
57884;PMS5003;43703;51.060;-0.086;2023-04-24T02:19:17;37;34;
57884;PMS5003;43703;51.060;-0.086;2023-04-24T02:21:42;36;34;
57884;PMS5003;43703;51.060;-0.086;2023-04-24T02:24:07;35;32;
57884;PMS5003;43703;51.060;-0.086;2023-04-24T02:26:33;31;30;
57884;PMS5003;43703;51.060;-0.086;2023-04-24T02:28:58;34;32;
57884;PMS5003;43703;51.060;-0.086;2023-04-24T02:31:24;37;32;
57884;PMS5003;43703;51.060;-0.086;2023-04-24T02:33:49;35;33;
57884;PMS5003;43703;51.060;-0.086;2023-04-24T02:36:14;35;31;
57884;PMS5003;43703;51.060;-0.086;2023-04-24T02:38:40;33;32;
57884;PMS5003;43703;51.060;-0.086;2023-04-24T02:41:05;36;34;
57884;PMS5003;43703;51.060;-0.086;2023-04-24T02:43:31;35;32;
57884;PMS5003;43703;51.060;-0.086;2023-04-24T02:45:56;36;34;
57884;PMS5003;43703;51.060;-0.086;2023-04-24T02:48:21;36;35;
57884;PMS5003;43703;51.060;-0.086;2023-04-24T02:50:46;36;36;
57884;PMS5003;43703;51.060;-0.086;2023-04-24T02:53:11;38;36;
57884;PMS5003;43703;51.060;-0.086;2023-04-24T02:55:36;34;33;
57884;PMS5003;43703;51.060;-0.086;2023-04-24T02:58:02;38;37;
57884;PMS5003;43703;51.060;-0.086;2023-04-24T03:00:28;38;34;
57884;PMS5003;43703;51.060;-0.086;2023-04-24T03:02:54;35;33;
57884;PMS5003;43703;51.060;-0.086;2023-04-24T03:05:19;32;30;
57884;PMS5003;43703;51.060;-0.086;2023-04-24T03:07:44;37;36;
57884;PMS5003;43703;51.060;-0.086;2023-04-24T03:10:10;44;40;
57884;PMS5003;43703;51.060;-0.086;2023-04-24T03:12:35;35;35;
57884;PMS5003;43703;51.060;-0.086;2023-04-24T03:15:00;36;34;
57884;PMS5003;43703;51.060;-0.086;2023-04-24T03:17:26;38;37;
57884;PMS5003;43703;51.060;-0.086;2023-04-24T03:19:51;35;34;
57884;PMS5003;43703;51.060;-0.086;2023-04-24T03:22:17;37;34;
57884;PMS5003;43703;51.060;-0.086;2023-04-24T03:24:42;33;31;
57884;PMS5003;43703;51.060;-0.086;2023-04-24T03:27:08;31;30;
57884;PMS5003;43703;51.060;-0.086;2023-04-24T03:29:33;37;36;
57884;PMS5003;43703;51.060;-0.086;2023-04-24T03:31:58;35;34;
57884;PMS5003;43703;51.060;-0.086;2023-04-24T03:34:24;34;34;
57884;PMS5003;43703;51.060;-0.086;2023-04-24T03:36:49;37;35;
57884;PMS5003;43703;51.060;-0.086;2023-04-24T03:39:15;35;34;
57884;PMS5003;43703;51.060;-0.086;2023-04-24T03:41:40;34;34;
57884;PMS5003;43703;51.060;-0.086;2023-04-24T03:44:05;35;35;
57884;PMS5003;43703;51.060;-0.086;2023-04-24T03:46:30;35;35;
57884;PMS5003;43703;51.060;-0.086;2023-04-24T03:48:56;36;33;
57884;PMS5003;43703;51.060;-0.086;2023-04-24T03:51:21;38;31;
57884;PMS5003;43703;51.060;-0.086;2023-04-24T03:53:47;40;36;
57884;PMS5003;43703;51.060;-0.086;2023-04-24T03:56:13;36;32;
57884;PMS5003;43703;51.060;-0.086;2023-04-24T03:58:39;33;31;
57884;PMS5003;43703;51.060;-0.086;2023-04-24T04:01:04;37;34;
57884;PMS5003;43703;51.060;-0.086;2023-04-24T04:03:29;34;33;
57884;PMS5003;43703;51.060;-0.086;2023-04-24T04:05:55;34;33;
57884;PMS5003;43703;51.060;-0.086;2023-04-24T04:08:20;39;37;
57884;PMS5003;43703;51.060;-0.086;2023-04-24T04:10:46;34;33;
57884;PMS5003;43703;51.060;-0.086;2023-04-24T04:13:11;39;36;
57884;PMS5003;43703;51.060;-0.086;2023-04-24T04:15:38;31;30;
57884;PMS5003;43703;51.060;-0.086;2023-04-24T04:18:02;38;38;
57884;PMS5003;43703;51.060;-0.086;2023-04-24T04:20:28;39;37;
57884;PMS5003;43703;51.060;-0.086;2023-04-24T04:22:53;37;35;
57884;PMS5003;43703;51.060;-0.086;2023-04-24T04:25:19;36;36;
57884;PMS5003;43703;51.060;-0.086;2023-04-24T04:27:44;38;37;
57884;PMS5003;43703;51.060;-0.086;2023-04-24T04:30:10;34;32;
57884;PMS5003;43703;51.060;-0.086;2023-04-24T04:32:35;31;31;
57884;PMS5003;43703;51.060;-0.086;2023-04-24T04:35:01;35;34;
57884;PMS5003;43703;51.060;-0.086;2023-04-24T04:37:26;32;32;
57884;PMS5003;43703;51.060;-0.086;2023-04-24T04:39:51;29;28;
57884;PMS5003;43703;51.060;-0.086;2023-04-24T04:42:16;29;28;
57884;PMS5003;43703;51.060;-0.086;2023-04-24T04:44:42;39;38;
57884;PMS5003;43703;51.060;-0.086;2023-04-24T04:47:07;34;33;
57884;PMS5003;43703;51.060;-0.086;2023-04-24T04:49:32;37;37;
57884;PMS5003;43703;51.060;-0.086;2023-04-24T04:51:57;38;36;
57884;PMS5003;43703;51.060;-0.086;2023-04-24T04:54:23;40;36;
57884;PMS5003;43703;51.060;-0.086;2023-04-24T04:56:49;32;32;
57884;PMS5003;43703;51.060;-0.086;2023-04-24T04:59:13;31;30;
57884;PMS5003;43703;51.060;-0.086;2023-04-24T05:01:39;35;34;
57884;PMS5003;43703;51.060;-0.086;2023-04-24T05:04:04;33;33;
57884;PMS5003;43703;51.060;-0.086;2023-04-24T05:06:29;32;31;
57884;PMS5003;43703;51.060;-0.086;2023-04-24T05:08:55;38;36;
57884;PMS5003;43703;51.060;-0.086;2023-04-24T05:11:20;32;32;
57884;PMS5003;43703;51.060;-0.086;2023-04-24T05:13:45;38;35;
57884;PMS5003;43703;51.060;-0.086;2023-04-24T05:16:11;37;36;
57884;PMS5003;43703;51.060;-0.086;2023-04-24T05:18:37;33;33;
57884;PMS5003;43703;51.060;-0.086;2023-04-24T05:21:02;33;30;
57884;PMS5003;43703;51.060;-0.086;2023-04-24T05:23:28;29;28;
57884;PMS5003;43703;51.060;-0.086;2023-04-24T05:25:53;30;30;
57884;PMS5003;43703;51.060;-0.086;2023-04-24T05:28:19;36;35;
57884;PMS5003;43703;51.060;-0.086;2023-04-24T05:30:45;32;31;
57884;PMS5003;43703;51.060;-0.086;2023-04-24T05:33:10;29;27;
57884;PMS5003;43703;51.060;-0.086;2023-04-24T05:35:35;33;33;
57884;PMS5003;43703;51.060;-0.086;2023-04-24T05:38:00;31;29;
57884;PMS5003;43703;51.060;-0.086;2023-04-24T05:40:25;34;33;
57884;PMS5003;43703;51.060;-0.086;2023-04-24T05:42:51;29;28;
57884;PMS5003;43703;51.060;-0.086;2023-04-24T05:45:16;29;26;
57884;PMS5003;43703;51.060;-0.086;2023-04-24T05:47:41;33;33;
57884;PMS5003;43703;51.060;-0.086;2023-04-24T05:50:07;38;31;
57884;PMS5003;43703;51.060;-0.086;2023-04-24T05:52:32;33;32;
57884;PMS5003;43703;51.060;-0.086;2023-04-24T05:54:57;34;32;
57884;PMS5003;43703;51.060;-0.086;2023-04-24T05:57:23;36;34;
57884;PMS5003;43703;51.060;-0.086;2023-04-24T05:59:48;31;31;
57884;PMS5003;43703;51.060;-0.086;2023-04-24T06:02:13;30;29;
57884;PMS5003;43703;51.060;-0.086;2023-04-24T06:04:39;28;28;
57884;PMS5003;43703;51.060;-0.086;2023-04-24T06:07:04;30;29;
57884;PMS5003;43703;51.060;-0.086;2023-04-24T06:09:29;31;30;
57884;PMS5003;43703;51.060;-0.086;2023-04-24T06:11:55;30;29;
57884;PMS5003;43703;51.060;-0.086;2023-04-24T06:14:20;31;28;
57884;PMS5003;43703;51.060;-0.086;2023-04-24T06:16:46;30;30;
57884;PMS5003;43703;51.060;-0.086;2023-04-24T06:19:11;35;34;
57884;PMS5003;43703;51.060;-0.086;2023-04-24T06:21:36;29;27;
57884;PMS5003;43703;51.060;-0.086;2023-04-24T06:24:01;27;26;
57884;PMS5003;43703;51.060;-0.086;2023-04-24T06:26:27;24;24;
57884;PMS5003;43703;51.060;-0.086;2023-04-24T06:28:52;31;29;
57884;PMS5003;43703;51.060;-0.086;2023-04-24T06:31:17;34;31;
57884;PMS5003;43703;51.060;-0.086;2023-04-24T06:33:43;30;29;
57884;PMS5003;43703;51.060;-0.086;2023-04-24T06:36:08;31;30;
57884;PMS5003;43703;51.060;-0.086;2023-04-24T06:38:34;31;28;
57884;PMS5003;43703;51.060;-0.086;2023-04-24T06:40:59;31;29;
57884;PMS5003;43703;51.060;-0.086;2023-04-24T06:43:24;29;26;
57884;PMS5003;43703;51.060;-0.086;2023-04-24T06:45:50;28;27;
57884;PMS5003;43703;51.060;-0.086;2023-04-24T06:48:15;26;25;
57884;PMS5003;43703;51.060;-0.086;2023-04-24T06:50:40;32;27;
57884;PMS5003;43703;51.060;-0.086;2023-04-24T06:53:05;25;24;
57884;PMS5003;43703;51.060;-0.086;2023-04-24T06:55:30;29;28;
57884;PMS5003;43703;51.060;-0.086;2023-04-24T06:57:56;29;27;
57884;PMS5003;43703;51.060;-0.086;2023-04-24T07:00:21;29;27;
57884;PMS5003;43703;51.060;-0.086;2023-04-24T07:02:47;30;30;
57884;PMS5003;43703;51.060;-0.086;2023-04-24T07:05:13;31;27;
57884;PMS5003;43703;51.060;-0.086;2023-04-24T07:07:39;27;27;
57884;PMS5003;43703;51.060;-0.086;2023-04-24T07:10:05;27;27;
57884;PMS5003;43703;51.060;-0.086;2023-04-24T07:12:30;33;31;
57884;PMS5003;43703;51.060;-0.086;2023-04-24T07:14:55;35;34;
57884;PMS5003;43703;51.060;-0.086;2023-04-24T07:17:20;34;33;
57884;PMS5003;43703;51.060;-0.086;2023-04-24T07:19:45;35;33;
57884;PMS5003;43703;51.060;-0.086;2023-04-24T07:22:11;27;27;
57884;PMS5003;43703;51.060;-0.086;2023-04-24T07:24:36;29;29;
57884;PMS5003;43703;51.060;-0.086;2023-04-24T07:27:02;32;31;
57884;PMS5003;43703;51.060;-0.086;2023-04-24T07:29:27;31;28;
57884;PMS5003;43703;51.060;-0.086;2023-04-24T07:31:53;28;26;
57884;PMS5003;43703;51.060;-0.086;2023-04-24T07:34:18;35;35;
57884;PMS5003;43703;51.060;-0.086;2023-04-24T07:36:44;33;31;
57884;PMS5003;43703;51.060;-0.086;2023-04-24T07:39:10;30;29;
57884;PMS5003;43703;51.060;-0.086;2023-04-24T07:41:35;28;26;
57884;PMS5003;43703;51.060;-0.086;2023-04-24T07:44:00;27;27;
57884;PMS5003;43703;51.060;-0.086;2023-04-24T07:46:26;27;25;
57884;PMS5003;43703;51.060;-0.086;2023-04-24T07:48:52;29;26;
57884;PMS5003;43703;51.060;-0.086;2023-04-24T07:51:17;29;29;
57884;PMS5003;43703;51.060;-0.086;2023-04-24T07:53:42;33;30;
57884;PMS5003;43703;51.060;-0.086;2023-04-24T07:56:08;33;28;
57884;PMS5003;43703;51.060;-0.086;2023-04-24T07:58:34;32;30;
57884;PMS5003;43703;51.060;-0.086;2023-04-24T08:00:59;25;25;
57884;PMS5003;43703;51.060;-0.086;2023-04-24T08:03:24;22;21;
57884;PMS5003;43703;51.060;-0.086;2023-04-24T08:05:50;23;23;
57884;PMS5003;43703;51.060;-0.086;2023-04-24T08:08:15;25;22;
57884;PMS5003;43703;51.060;-0.086;2023-04-24T08:10:41;23;23;
57884;PMS5003;43703;51.060;-0.086;2023-04-24T08:13:06;23;18;
57884;PMS5003;43703;51.060;-0.086;2023-04-24T08:15:31;19;19;
57884;PMS5003;43703;51.060;-0.086;2023-04-24T08:17:56;19;18;
57884;PMS5003;43703;51.060;-0.086;2023-04-24T08:20:22;24;23;
57884;PMS5003;43703;51.060;-0.086;2023-04-24T08:22:47;23;22;
57884;PMS5003;43703;51.060;-0.086;2023-04-24T08:25:13;19;18;
57884;PMS5003;43703;51.060;-0.086;2023-04-24T08:27:39;20;20;
57884;PMS5003;43703;51.060;-0.086;2023-04-24T08:30:05;18;18;
57884;PMS5003;43703;51.060;-0.086;2023-04-24T08:32:30;20;20;
57884;PMS5003;43703;51.060;-0.086;2023-04-24T08:34:56;19;19;
57884;PMS5003;43703;51.060;-0.086;2023-04-24T08:37:21;21;21;
57884;PMS5003;43703;51.060;-0.086;2023-04-24T08:39:46;24;21;
57884;PMS5003;43703;51.060;-0.086;2023-04-24T08:42:12;17;17;
57884;PMS5003;43703;51.060;-0.086;2023-04-24T08:44:37;16;14;
57884;PMS5003;43703;51.060;-0.086;2023-04-24T08:47:04;21;18;
57884;PMS5003;43703;51.060;-0.086;2023-04-24T08:49:29;15;14;
57884;PMS5003;43703;51.060;-0.086;2023-04-24T08:51:54;16;15;
57884;PMS5003;43703;51.060;-0.086;2023-04-24T08:54:20;16;16;
57884;PMS5003;43703;51.060;-0.086;2023-04-24T08:56:45;13;13;
57884;PMS5003;43703;51.060;-0.086;2023-04-24T08:59:11;18;16;
57884;PMS5003;43703;51.060;-0.086;2023-04-24T09:01:37;20;18;
57884;PMS5003;43703;51.060;-0.086;2023-04-24T09:04:03;16;16;
57884;PMS5003;43703;51.060;-0.086;2023-04-24T09:06:28;17;17;
57884;PMS5003;43703;51.060;-0.086;2023-04-24T09:08:54;16;16;
57884;PMS5003;43703;51.060;-0.086;2023-04-24T09:11:19;16;16;
57884;PMS5003;43703;51.060;-0.086;2023-04-24T09:13:44;18;15;
57884;PMS5003;43703;51.060;-0.086;2023-04-24T09:16:10;14;13;
57884;PMS5003;43703;51.060;-0.086;2023-04-24T09:18:36;13;12;
57884;PMS5003;43703;51.060;-0.086;2023-04-24T09:21:02;18;18;
57884;PMS5003;43703;51.060;-0.086;2023-04-24T09:23:27;18;16;
57884;PMS5003;43703;51.060;-0.086;2023-04-24T09:25:54;14;14;
57884;PMS5003;43703;51.060;-0.086;2023-04-24T09:28:18;17;17;
57884;PMS5003;43703;51.060;-0.086;2023-04-24T09:30:44;18;18;
57884;PMS5003;43703;51.060;-0.086;2023-04-24T09:33:10;20;19;
57884;PMS5003;43703;51.060;-0.086;2023-04-24T09:35:40;20;19;
57884;PMS5003;43703;51.060;-0.086;2023-04-24T09:38:01;19;19;
57884;PMS5003;43703;51.060;-0.086;2023-04-24T09:40:26;18;18;
57884;PMS5003;43703;51.060;-0.086;2023-04-24T09:42:52;17;16;
57884;PMS5003;43703;51.060;-0.086;2023-04-24T09:45:17;15;14;
57884;PMS5003;43703;51.060;-0.086;2023-04-24T09:47:42;17;17;
57884;PMS5003;43703;51.060;-0.086;2023-04-24T09:50:09;16;16;
57884;PMS5003;43703;51.060;-0.086;2023-04-24T09:52:33;18;18;
57884;PMS5003;43703;51.060;-0.086;2023-04-24T09:54:58;16;16;
57884;PMS5003;43703;51.060;-0.086;2023-04-24T09:57:23;22;19;
57884;PMS5003;43703;51.060;-0.086;2023-04-24T09:59:48;18;17;
57884;PMS5003;43703;51.060;-0.086;2023-04-24T10:02:17;19;19;
57884;PMS5003;43703;51.060;-0.086;2023-04-24T10:04:38;20;20;
57884;PMS5003;43703;51.060;-0.086;2023-04-24T10:07:03;22;21;
57884;PMS5003;43703;51.060;-0.086;2023-04-24T10:09:28;22;21;
57884;PMS5003;43703;51.060;-0.086;2023-04-24T10:11:54;17;17;
57884;PMS5003;43703;51.060;-0.086;2023-04-24T10:14:21;16;16;
57884;PMS5003;43703;51.060;-0.086;2023-04-24T10:16:45;18;18;
57884;PMS5003;43703;51.060;-0.086;2023-04-24T10:19:10;23;23;
57884;PMS5003;43703;51.060;-0.086;2023-04-24T10:21:37;19;18;
57884;PMS5003;43703;51.060;-0.086;2023-04-24T10:24:01;17;17;
57884;PMS5003;43703;51.060;-0.086;2023-04-24T10:26:26;16;16;
57884;PMS5003;43703;51.060;-0.086;2023-04-24T10:28:51;16;14;
57884;PMS5003;43703;51.060;-0.086;2023-04-24T10:31:17;18;17;
57884;PMS5003;43703;51.060;-0.086;2023-04-24T10:33:43;17;17;
57884;PMS5003;43703;51.060;-0.086;2023-04-24T10:36:07;17;16;
57884;PMS5003;43703;51.060;-0.086;2023-04-24T10:38:33;17;16;
57884;PMS5003;43703;51.060;-0.086;2023-04-24T10:43:24;19;18;
57884;PMS5003;43703;51.060;-0.086;2023-04-24T10:48:14;15;15;
57884;PMS5003;43703;51.060;-0.086;2023-04-24T10:50:43;20;20;
57884;PMS5003;43703;51.060;-0.086;2023-04-24T10:53:05;17;17;
57884;PMS5003;43703;51.060;-0.086;2023-04-24T11:00:20;15;15;
57884;PMS5003;43703;51.060;-0.086;2023-04-24T11:02:45;22;20;
57884;PMS5003;43703;51.060;-0.086;2023-04-24T11:05:10;17;17;
57884;PMS5003;43703;51.060;-0.086;2023-04-24T11:10:01;19;19;
57884;PMS5003;43703;51.060;-0.086;2023-04-24T11:12:27;17;17;
57884;PMS5003;43703;51.060;-0.086;2023-04-24T11:19:43;18;18;
57884;PMS5003;43703;51.060;-0.086;2023-04-24T11:22:13;16;16;
57884;PMS5003;43703;51.060;-0.086;2023-04-24T11:24:38;15;15;
57884;PMS5003;43703;51.060;-0.086;2023-04-24T11:27:05;16;15;
57884;PMS5003;43703;51.060;-0.086;2023-04-24T11:31:50;16;16;
57884;PMS5003;43703;51.060;-0.086;2023-04-24T11:34:16;18;17;
57884;PMS5003;43703;51.060;-0.086;2023-04-24T11:36:42;17;16;
57884;PMS5003;43703;51.060;-0.086;2023-04-24T11:39:07;13;12;
57884;PMS5003;43703;51.060;-0.086;2023-04-24T11:41:33;18;17;
57884;PMS5003;43703;51.060;-0.086;2023-04-24T11:43:59;14;14;
57884;PMS5003;43703;51.060;-0.086;2023-04-24T11:46:27;15;14;
57884;PMS5003;43703;51.060;-0.086;2023-04-24T11:48:51;18;18;
57884;PMS5003;43703;51.060;-0.086;2023-04-24T11:51:17;17;17;
57884;PMS5003;43703;51.060;-0.086;2023-04-24T11:53:42;19;16;
57884;PMS5003;43703;51.060;-0.086;2023-04-24T11:56:08;14;14;
57884;PMS5003;43703;51.060;-0.086;2023-04-24T11:58:34;16;16;
57884;PMS5003;43703;51.060;-0.086;2023-04-24T12:00:58;18;16;
57884;PMS5003;43703;51.060;-0.086;2023-04-24T12:03:24;15;14;
57884;PMS5003;43703;51.060;-0.086;2023-04-24T12:05:49;15;15;
57884;PMS5003;43703;51.060;-0.086;2023-04-24T12:10:40;16;13;
57884;PMS5003;43703;51.060;-0.086;2023-04-24T12:13:05;13;13;
57884;PMS5003;43703;51.060;-0.086;2023-04-24T12:15:30;14;14;
57884;PMS5003;43703;51.060;-0.086;2023-04-24T12:17:56;14;14;
57884;PMS5003;43703;51.060;-0.086;2023-04-24T12:20:23;17;17;
57884;PMS5003;43703;51.060;-0.086;2023-04-24T12:22:48;17;16;
57884;PMS5003;43703;51.060;-0.086;2023-04-24T12:25:13;18;18;
57884;PMS5003;43703;51.060;-0.086;2023-04-24T12:27:38;20;18;
57884;PMS5003;43703;51.060;-0.086;2023-04-24T12:30:04;20;18;
57884;PMS5003;43703;51.060;-0.086;2023-04-24T12:32:28;23;21;
57884;PMS5003;43703;51.060;-0.086;2023-04-24T12:34:54;20;20;
57884;PMS5003;43703;51.060;-0.086;2023-04-24T12:37:19;24;22;
57884;PMS5003;43703;51.060;-0.086;2023-04-24T12:42:11;25;22;
57884;PMS5003;43703;51.060;-0.086;2023-04-24T12:44:36;24;22;
57884;PMS5003;43703;51.060;-0.086;2023-04-24T12:47:01;20;20;
57884;PMS5003;43703;51.060;-0.086;2023-04-24T12:49:27;21;21;
57884;PMS5003;43703;51.060;-0.086;2023-04-24T12:51:52;25;24;
57884;PMS5003;43703;51.060;-0.086;2023-04-24T12:54:17;22;22;
57884;PMS5003;43703;51.060;-0.086;2023-04-24T12:56:42;19;19;
57884;PMS5003;43703;51.060;-0.086;2023-04-24T12:59:08;25;21;
57884;PMS5003;43703;51.060;-0.086;2023-04-24T13:01:33;25;23;
57884;PMS5003;43703;51.060;-0.086;2023-04-24T13:03:59;31;31;
57884;PMS5003;43703;51.060;-0.086;2023-04-24T13:06:24;27;25;
57884;PMS5003;43703;51.060;-0.086;2023-04-24T13:08:50;27;25;
57884;PMS5003;43703;51.060;-0.086;2023-04-24T13:11:15;22;22;
57884;PMS5003;43703;51.060;-0.086;2023-04-24T13:13:41;27;27;
57884;PMS5003;43703;51.060;-0.086;2023-04-24T13:16:07;22;21;
57884;PMS5003;43703;51.060;-0.086;2023-04-24T13:18:32;21;21;
57884;PMS5003;43703;51.060;-0.086;2023-04-24T13:20:57;27;25;
57884;PMS5003;43703;51.060;-0.086;2023-04-24T13:23:23;23;23;
57884;PMS5003;43703;51.060;-0.086;2023-04-24T13:25:47;23;23;
57884;PMS5003;43703;51.060;-0.086;2023-04-24T13:28:13;23;23;
57884;PMS5003;43703;51.060;-0.086;2023-04-24T13:30:38;26;26;
57884;PMS5003;43703;51.060;-0.086;2023-04-24T13:33:04;20;20;
57884;PMS5003;43703;51.060;-0.086;2023-04-24T13:35:29;20;20;
57884;PMS5003;43703;51.060;-0.086;2023-04-24T13:37:55;23;22;
57884;PMS5003;43703;51.060;-0.086;2023-04-24T13:40:20;18;18;
57884;PMS5003;43703;51.060;-0.086;2023-04-24T13:42:45;21;20;
57884;PMS5003;43703;51.060;-0.086;2023-04-24T13:45:10;20;19;
57884;PMS5003;43703;51.060;-0.086;2023-04-24T13:47:36;19;18;
57884;PMS5003;43703;51.060;-0.086;2023-04-24T13:50:01;20;18;
57884;PMS5003;43703;51.060;-0.086;2023-04-24T13:52:26;16;15;
57884;PMS5003;43703;51.060;-0.086;2023-04-24T13:54:51;22;19;
57884;PMS5003;43703;51.060;-0.086;2023-04-24T13:57:16;16;16;
57884;PMS5003;43703;51.060;-0.086;2023-04-24T13:59:41;13;13;
57884;PMS5003;43703;51.060;-0.086;2023-04-24T14:02:07;19;16;
57884;PMS5003;43703;51.060;-0.086;2023-04-24T14:04:32;21;18;
57884;PMS5003;43703;51.060;-0.086;2023-04-24T14:06:57;17;17;
57884;PMS5003;43703;51.060;-0.086;2023-04-24T14:09:22;23;19;
57884;PMS5003;43703;51.060;-0.086;2023-04-24T14:11:48;23;22;
57884;PMS5003;43703;51.060;-0.086;2023-04-24T14:14:13;21;21;
57884;PMS5003;43703;51.060;-0.086;2023-04-24T14:16:39;18;18;
57884;PMS5003;43703;51.060;-0.086;2023-04-24T14:19:04;23;22;
57884;PMS5003;43703;51.060;-0.086;2023-04-24T14:21:29;24;23;
57884;PMS5003;43703;51.060;-0.086;2023-04-24T14:23:54;20;20;
57884;PMS5003;43703;51.060;-0.086;2023-04-24T14:26:20;25;24;
57884;PMS5003;43703;51.060;-0.086;2023-04-24T14:28:45;21;21;
57884;PMS5003;43703;51.060;-0.086;2023-04-24T14:31:11;22;22;
57884;PMS5003;43703;51.060;-0.086;2023-04-24T14:33:37;27;27;
57884;PMS5003;43703;51.060;-0.086;2023-04-24T14:36:02;22;22;
57884;PMS5003;43703;51.060;-0.086;2023-04-24T14:38:28;20;20;
57884;PMS5003;43703;51.060;-0.086;2023-04-24T14:40:53;21;18;
57884;PMS5003;43703;51.060;-0.086;2023-04-24T14:43:18;22;21;
57884;PMS5003;43703;51.060;-0.086;2023-04-24T14:45:43;25;22;
57884;PMS5003;43703;51.060;-0.086;2023-04-24T14:48:09;21;19;
57884;PMS5003;43703;51.060;-0.086;2023-04-24T14:50:34;26;26;
57884;PMS5003;43703;51.060;-0.086;2023-04-24T14:53:00;27;24;
57884;PMS5003;43703;51.060;-0.086;2023-04-24T14:55:25;25;24;
57884;PMS5003;43703;51.060;-0.086;2023-04-24T14:57:50;26;24;
57884;PMS5003;43703;51.060;-0.086;2023-04-24T15:00:16;25;22;
57884;PMS5003;43703;51.060;-0.086;2023-04-24T15:02:40;21;21;
57884;PMS5003;43703;51.060;-0.086;2023-04-24T15:05:06;16;16;
57884;PMS5003;43703;51.060;-0.086;2023-04-24T15:07:31;16;16;
57884;PMS5003;43703;51.060;-0.086;2023-04-24T15:09:56;22;21;
57884;PMS5003;43703;51.060;-0.086;2023-04-24T15:12:21;16;16;
57884;PMS5003;43703;51.060;-0.086;2023-04-24T15:14:47;18;18;
57884;PMS5003;43703;51.060;-0.086;2023-04-24T15:17:12;17;15;
57884;PMS5003;43703;51.060;-0.086;2023-04-24T15:19:37;17;17;
57884;PMS5003;43703;51.060;-0.086;2023-04-24T15:22:03;16;14;
57884;PMS5003;43703;51.060;-0.086;2023-04-24T15:24:29;17;16;
57884;PMS5003;43703;51.060;-0.086;2023-04-24T15:26:54;17;17;
57884;PMS5003;43703;51.060;-0.086;2023-04-24T15:29:20;18;18;
57884;PMS5003;43703;51.060;-0.086;2023-04-24T15:31:45;16;16;
57884;PMS5003;43703;51.060;-0.086;2023-04-24T15:34:10;15;14;
57884;PMS5003;43703;51.060;-0.086;2023-04-24T15:36:36;14;14;
57884;PMS5003;43703;51.060;-0.086;2023-04-24T15:39:01;14;12;
57884;PMS5003;43703;51.060;-0.086;2023-04-24T15:41:26;13;13;
57884;PMS5003;43703;51.060;-0.086;2023-04-24T15:43:51;14;14;
57884;PMS5003;43703;51.060;-0.086;2023-04-24T15:46:16;12;12;
57884;PMS5003;43703;51.060;-0.086;2023-04-24T15:48:42;17;13;
57884;PMS5003;43703;51.060;-0.086;2023-04-24T15:51:07;17;17;
57884;PMS5003;43703;51.060;-0.086;2023-04-24T15:53:33;15;13;
57884;PMS5003;43703;51.060;-0.086;2023-04-24T15:55:58;13;13;
57884;PMS5003;43703;51.060;-0.086;2023-04-24T15:58:23;12;9;
57884;PMS5003;43703;51.060;-0.086;2023-04-24T16:00:48;11;11;
57884;PMS5003;43703;51.060;-0.086;2023-04-24T16:03:13;9;9;
57884;PMS5003;43703;51.060;-0.086;2023-04-24T16:05:38;11;11;
57884;PMS5003;43703;51.060;-0.086;2023-04-24T16:08:03;12;12;
57884;PMS5003;43703;51.060;-0.086;2023-04-24T16:10:28;13;11;
57884;PMS5003;43703;51.060;-0.086;2023-04-24T16:12:53;10;10;